sensor_id;sensor_type;location;lat;lon;timestamp;temperature;humidity
26541;DHT22;14206;50.202;10.948;2022-09-12T00:01:14;12.70;96.60
26541;DHT22;14206;50.202;10.948;2022-09-12T00:03:42;12.70;96.60
26541;DHT22;14206;50.202;10.948;2022-09-12T00:06:16;12.70;96.60
26541;DHT22;14206;50.202;10.948;2022-09-12T00:08:49;12.70;96.60
26541;DHT22;14206;50.202;10.948;2022-09-12T00:11:16;12.70;96.60
26541;DHT22;14206;50.202;10.948;2022-09-12T00:13:43;12.70;96.60
26541;DHT22;14206;50.202;10.948;2022-09-12T00:16:14;12.60;96.60
26541;DHT22;14206;50.202;10.948;2022-09-12T00:18:42;12.60;96.60
26541;DHT22;14206;50.202;10.948;2022-09-12T00:21:13;12.60;96.60
26541;DHT22;14206;50.202;10.948;2022-09-12T00:23:40;12.60;96.60
26541;DHT22;14206;50.202;10.948;2022-09-12T00:26:07;12.60;96.60
26541;DHT22;14206;50.202;10.948;2022-09-12T00:28:35;12.50;96.60
26541;DHT22;14206;50.202;10.948;2022-09-12T00:31:08;12.50;96.60
26541;DHT22;14206;50.202;10.948;2022-09-12T00:33:35;12.50;96.60
26541;DHT22;14206;50.202;10.948;2022-09-12T00:36:14;12.50;96.60
26541;DHT22;14206;50.202;10.948;2022-09-12T00:38:43;12.50;96.60
26541;DHT22;14206;50.202;10.948;2022-09-12T00:43:49;12.60;96.60
26541;DHT22;14206;50.202;10.948;2022-09-12T00:52:08;12.60;96.60
26541;DHT22;14206;50.202;10.948;2022-09-12T00:54:49;12.60;96.60
26541;DHT22;14206;50.202;10.948;2022-09-12T00:57:21;12.60;96.60
26541;DHT22;14206;50.202;10.948;2022-09-12T00:59:56;12.60;96.60
26541;DHT22;14206;50.202;10.948;2022-09-12T01:02:24;12.60;96.60
26541;DHT22;14206;50.202;10.948;2022-09-12T01:04:51;12.60;96.60
26541;DHT22;14206;50.202;10.948;2022-09-12T01:07:19;12.60;96.60
26541;DHT22;14206;50.202;10.948;2022-09-12T01:09:47;12.50;96.60
26541;DHT22;14206;50.202;10.948;2022-09-12T01:12:14;12.50;96.60
26541;DHT22;14206;50.202;10.948;2022-09-12T01:14:42;12.50;96.60
26541;DHT22;14206;50.202;10.948;2022-09-12T01:17:13;12.50;96.60
26541;DHT22;14206;50.202;10.948;2022-09-12T01:23:07;12.50;96.60
26541;DHT22;14206;50.202;10.948;2022-09-12T01:28:48;12.50;96.60
26541;DHT22;14206;50.202;10.948;2022-09-12T01:31:33;12.50;96.60
26541;DHT22;14206;50.202;10.948;2022-09-12T01:42:14;12.50;96.60
26541;DHT22;14206;50.202;10.948;2022-09-12T01:44:49;12.50;96.60
26541;DHT22;14206;50.202;10.948;2022-09-12T01:47:25;12.50;96.60
26541;DHT22;14206;50.202;10.948;2022-09-12T01:50:01;12.50;96.60
26541;DHT22;14206;50.202;10.948;2022-09-12T01:58:04;12.60;96.60
26541;DHT22;14206;50.202;10.948;2022-09-12T02:00:38;12.70;96.60
26541;DHT22;14206;50.202;10.948;2022-09-12T02:03:15;12.70;96.60
26541;DHT22;14206;50.202;10.948;2022-09-12T02:08:22;12.80;96.60
26541;DHT22;14206;50.202;10.948;2022-09-12T02:10:55;12.80;96.60
26541;DHT22;14206;50.202;10.948;2022-09-12T02:13:38;12.80;96.60
26541;DHT22;14206;50.202;10.948;2022-09-12T02:16:16;12.90;96.60
26541;DHT22;14206;50.202;10.948;2022-09-12T02:18:56;12.90;96.60
26541;DHT22;14206;50.202;10.948;2022-09-12T02:21:25;12.90;96.60
26541;DHT22;14206;50.202;10.948;2022-09-12T02:23:57;12.90;96.60
26541;DHT22;14206;50.202;10.948;2022-09-12T02:26:30;12.90;96.60
26541;DHT22;14206;50.202;10.948;2022-09-12T02:28:59;12.90;96.60
26541;DHT22;14206;50.202;10.948;2022-09-12T02:34:31;12.90;96.60
26541;DHT22;14206;50.202;10.948;2022-09-12T02:37:16;12.90;96.60
26541;DHT22;14206;50.202;10.948;2022-09-12T02:39:46;12.90;96.60
26541;DHT22;14206;50.202;10.948;2022-09-12T02:42:13;12.90;96.60
26541;DHT22;14206;50.202;10.948;2022-09-12T02:44:40;12.90;96.60
26541;DHT22;14206;50.202;10.948;2022-09-12T02:47:13;13.00;96.60
26541;DHT22;14206;50.202;10.948;2022-09-12T02:49:40;13.00;96.60
26541;DHT22;14206;50.202;10.948;2022-09-12T02:52:07;13.00;96.60
26541;DHT22;14206;50.202;10.948;2022-09-12T02:54:35;13.00;96.60
26541;DHT22;14206;50.202;10.948;2022-09-12T02:57:13;13.00;96.60
26541;DHT22;14206;50.202;10.948;2022-09-12T02:59:44;12.90;96.60
26541;DHT22;14206;50.202;10.948;2022-09-12T03:02:25;12.90;96.60
26541;DHT22;14206;50.202;10.948;2022-09-12T03:08:04;12.80;96.60
26541;DHT22;14206;50.202;10.948;2022-09-12T03:13:39;12.80;96.60
26541;DHT22;14206;50.202;10.948;2022-09-12T03:19:23;12.80;96.60
26541;DHT22;14206;50.202;10.948;2022-09-12T03:27:29;12.80;96.60
26541;DHT22;14206;50.202;10.948;2022-09-12T03:29:57;12.70;96.60
26541;DHT22;14206;50.202;10.948;2022-09-12T03:32:52;12.70;96.60
26541;DHT22;14206;50.202;10.948;2022-09-12T03:35:22;12.70;96.60
26541;DHT22;14206;50.202;10.948;2022-09-12T03:37:50;12.70;96.60
26541;DHT22;14206;50.202;10.948;2022-09-12T03:40:18;12.70;96.60
26541;DHT22;14206;50.202;10.948;2022-09-12T03:42:45;12.70;96.60
26541;DHT22;14206;50.202;10.948;2022-09-12T03:45:12;12.60;96.60
26541;DHT22;14206;50.202;10.948;2022-09-12T03:47:40;12.60;96.60
26541;DHT22;14206;50.202;10.948;2022-09-12T03:50:08;12.60;96.60
26541;DHT22;14206;50.202;10.948;2022-09-12T03:52:34;12.60;96.60
26541;DHT22;14206;50.202;10.948;2022-09-12T03:55:02;12.60;96.60
26541;DHT22;14206;50.202;10.948;2022-09-12T03:57:28;12.50;96.60
26541;DHT22;14206;50.202;10.948;2022-09-12T03:59:55;12.50;96.60
26541;DHT22;14206;50.202;10.948;2022-09-12T04:02:22;12.50;96.60
26541;DHT22;14206;50.202;10.948;2022-09-12T04:04:49;12.50;96.60
26541;DHT22;14206;50.202;10.948;2022-09-12T04:07:16;12.50;96.60
26541;DHT22;14206;50.202;10.948;2022-09-12T04:09:43;12.50;96.60
26541;DHT22;14206;50.202;10.948;2022-09-12T04:12:10;12.50;96.60
26541;DHT22;14206;50.202;10.948;2022-09-12T04:14:38;12.50;96.60
26541;DHT22;14206;50.202;10.948;2022-09-12T04:17:05;12.50;96.60
26541;DHT22;14206;50.202;10.948;2022-09-12T04:19:32;12.50;96.60
26541;DHT22;14206;50.202;10.948;2022-09-12T04:21:59;12.50;96.60
26541;DHT22;14206;50.202;10.948;2022-09-12T04:24:25;12.50;96.60
26541;DHT22;14206;50.202;10.948;2022-09-12T04:26:52;12.50;96.60
26541;DHT22;14206;50.202;10.948;2022-09-12T04:29:19;12.50;96.60
26541;DHT22;14206;50.202;10.948;2022-09-12T04:31:46;12.40;96.60
26541;DHT22;14206;50.202;10.948;2022-09-12T04:34:13;12.40;96.60
26541;DHT22;14206;50.202;10.948;2022-09-12T04:36:41;12.40;96.60
26541;DHT22;14206;50.202;10.948;2022-09-12T04:39:09;12.40;96.60
26541;DHT22;14206;50.202;10.948;2022-09-12T04:41:38;12.30;96.60
26541;DHT22;14206;50.202;10.948;2022-09-12T04:44:09;12.30;96.60
26541;DHT22;14206;50.202;10.948;2022-09-12T04:46:38;12.20;96.60
26541;DHT22;14206;50.202;10.948;2022-09-12T04:49:06;12.20;96.60
26541;DHT22;14206;50.202;10.948;2022-09-12T04:51:35;12.20;96.60
26541;DHT22;14206;50.202;10.948;2022-09-12T04:54:06;12.20;96.60
26541;DHT22;14206;50.202;10.948;2022-09-12T04:56:36;12.30;96.60
26541;DHT22;14206;50.202;10.948;2022-09-12T04:59:03;12.30;96.60
26541;DHT22;14206;50.202;10.948;2022-09-12T05:01:31;12.30;96.60
26541;DHT22;14206;50.202;10.948;2022-09-12T05:03:58;12.30;96.60
26541;DHT22;14206;50.202;10.948;2022-09-12T05:06:28;12.30;96.60
26541;DHT22;14206;50.202;10.948;2022-09-12T05:08:56;12.30;96.60
26541;DHT22;14206;50.202;10.948;2022-09-12T05:11:27;12.40;96.60
26541;DHT22;14206;50.202;10.948;2022-09-12T05:14:15;12.40;96.60
26541;DHT22;14206;50.202;10.948;2022-09-12T05:16:42;12.50;96.60
26541;DHT22;14206;50.202;10.948;2022-09-12T05:19:14;12.50;96.60
26541;DHT22;14206;50.202;10.948;2022-09-12T05:21:41;12.50;96.60
26541;DHT22;14206;50.202;10.948;2022-09-12T05:24:09;12.50;96.60
26541;DHT22;14206;50.202;10.948;2022-09-12T05:26:37;12.50;96.60
26541;DHT22;14206;50.202;10.948;2022-09-12T05:29:04;12.60;96.60
26541;DHT22;14206;50.202;10.948;2022-09-12T05:31:32;12.60;96.60
26541;DHT22;14206;50.202;10.948;2022-09-12T05:34:00;12.70;96.60
26541;DHT22;14206;50.202;10.948;2022-09-12T05:36:28;12.80;96.60
26541;DHT22;14206;50.202;10.948;2022-09-12T05:38:56;12.80;96.60
26541;DHT22;14206;50.202;10.948;2022-09-12T05:41:27;12.90;96.60
26541;DHT22;14206;50.202;10.948;2022-09-12T05:44:00;12.90;96.60
26541;DHT22;14206;50.202;10.948;2022-09-12T05:46:29;12.90;96.60
26541;DHT22;14206;50.202;10.948;2022-09-12T05:49:02;13.00;96.60
26541;DHT22;14206;50.202;10.948;2022-09-12T05:51:32;13.10;96.60
26541;DHT22;14206;50.202;10.948;2022-09-12T05:54:02;13.10;96.60
26541;DHT22;14206;50.202;10.948;2022-09-12T05:56:31;13.20;96.60
26541;DHT22;14206;50.202;10.948;2022-09-12T05:59:01;13.30;96.60
26541;DHT22;14206;50.202;10.948;2022-09-12T06:01:30;13.30;96.60
26541;DHT22;14206;50.202;10.948;2022-09-12T06:03:59;13.40;96.60
26541;DHT22;14206;50.202;10.948;2022-09-12T06:06:27;13.40;96.60
26541;DHT22;14206;50.202;10.948;2022-09-12T06:08:58;13.50;96.60
26541;DHT22;14206;50.202;10.948;2022-09-12T06:11:27;13.50;96.60
26541;DHT22;14206;50.202;10.948;2022-09-12T06:13:55;13.60;96.60
26541;DHT22;14206;50.202;10.948;2022-09-12T06:16:25;13.50;96.60
26541;DHT22;14206;50.202;10.948;2022-09-12T06:18:54;13.50;96.60
26541;DHT22;14206;50.202;10.948;2022-09-12T06:21:23;13.60;96.60
26541;DHT22;14206;50.202;10.948;2022-09-12T06:23:50;13.60;96.60
26541;DHT22;14206;50.202;10.948;2022-09-12T06:26:17;13.60;96.60
26541;DHT22;14206;50.202;10.948;2022-09-12T06:28:47;13.60;96.60
26541;DHT22;14206;50.202;10.948;2022-09-12T06:31:16;13.70;96.60
26541;DHT22;14206;50.202;10.948;2022-09-12T06:33:49;13.70;96.60
26541;DHT22;14206;50.202;10.948;2022-09-12T06:36:25;13.80;96.60
26541;DHT22;14206;50.202;10.948;2022-09-12T06:39:00;13.90;96.60
26541;DHT22;14206;50.202;10.948;2022-09-12T06:41:27;14.00;96.60
26541;DHT22;14206;50.202;10.948;2022-09-12T06:43:54;14.10;96.60
26541;DHT22;14206;50.202;10.948;2022-09-12T06:46:21;14.10;96.60
26541;DHT22;14206;50.202;10.948;2022-09-12T06:48:48;14.10;96.60
26541;DHT22;14206;50.202;10.948;2022-09-12T06:51:17;14.20;96.60
26541;DHT22;14206;50.202;10.948;2022-09-12T06:53:47;14.40;96.60
26541;DHT22;14206;50.202;10.948;2022-09-12T06:56:16;14.60;96.60
26541;DHT22;14206;50.202;10.948;2022-09-12T06:58:45;14.70;96.50
26541;DHT22;14206;50.202;10.948;2022-09-12T07:03:49;15.10;96.50
26541;DHT22;14206;50.202;10.948;2022-09-12T07:06:18;15.20;95.00
26541;DHT22;14206;50.202;10.948;2022-09-12T07:08:45;15.40;94.50
26541;DHT22;14206;50.202;10.948;2022-09-12T07:11:19;15.40;94.20
26541;DHT22;14206;50.202;10.948;2022-09-12T07:13:48;15.50;94.90
26541;DHT22;14206;50.202;10.948;2022-09-12T07:16:15;15.70;94.40
26541;DHT22;14206;50.202;10.948;2022-09-12T07:18:56;15.70;93.70
26541;DHT22;14206;50.202;10.948;2022-09-12T07:21:24;15.70;92.70
26541;DHT22;14206;50.202;10.948;2022-09-12T07:23:51;15.80;93.80
26541;DHT22;14206;50.202;10.948;2022-09-12T07:26:20;15.80;93.10
26541;DHT22;14206;50.202;10.948;2022-09-12T07:28:51;15.80;92.50
26541;DHT22;14206;50.202;10.948;2022-09-12T07:31:41;15.90;93.20
26541;DHT22;14206;50.202;10.948;2022-09-12T07:34:09;16.00;92.70
26541;DHT22;14206;50.202;10.948;2022-09-12T07:36:36;16.10;92.80
26541;DHT22;14206;50.202;10.948;2022-09-12T07:39:03;16.20;92.90
26541;DHT22;14206;50.202;10.948;2022-09-12T07:41:31;16.30;91.90
26541;DHT22;14206;50.202;10.948;2022-09-12T07:44:01;16.40;91.50
26541;DHT22;14206;50.202;10.948;2022-09-12T07:46:30;16.40;90.80
26541;DHT22;14206;50.202;10.948;2022-09-12T07:48:58;16.50;91.30
26541;DHT22;14206;50.202;10.948;2022-09-12T07:51:26;16.50;91.10
26541;DHT22;14206;50.202;10.948;2022-09-12T07:53:54;16.50;91.50
26541;DHT22;14206;50.202;10.948;2022-09-12T07:56:22;16.60;91.00
26541;DHT22;14206;50.202;10.948;2022-09-12T07:58:55;16.60;90.60
26541;DHT22;14206;50.202;10.948;2022-09-12T08:01:22;16.60;90.80
26541;DHT22;14206;50.202;10.948;2022-09-12T08:03:53;16.70;91.30
26541;DHT22;14206;50.202;10.948;2022-09-12T08:06:21;16.80;90.80
26541;DHT22;14206;50.202;10.948;2022-09-12T08:08:51;16.90;90.90
26541;DHT22;14206;50.202;10.948;2022-09-12T08:11:20;17.00;90.20
26541;DHT22;14206;50.202;10.948;2022-09-12T08:13:48;17.10;89.40
26541;DHT22;14206;50.202;10.948;2022-09-12T08:16:25;17.20;90.60
26541;DHT22;14206;50.202;10.948;2022-09-12T08:18:53;17.40;90.00
26541;DHT22;14206;50.202;10.948;2022-09-12T08:21:22;17.40;89.20
26541;DHT22;14206;50.202;10.948;2022-09-12T08:24:03;17.50;89.10
26541;DHT22;14206;50.202;10.948;2022-09-12T08:26:32;17.60;89.20
26541;DHT22;14206;50.202;10.948;2022-09-12T08:28:59;17.70;89.00
26541;DHT22;14206;50.202;10.948;2022-09-12T08:31:26;17.80;89.40
26541;DHT22;14206;50.202;10.948;2022-09-12T08:33:55;18.00;88.40
26541;DHT22;14206;50.202;10.948;2022-09-12T08:36:24;18.10;88.30
26541;DHT22;14206;50.202;10.948;2022-09-12T08:39:00;18.20;87.00
26541;DHT22;14206;50.202;10.948;2022-09-12T08:41:44;18.20;87.40
26541;DHT22;14206;50.202;10.948;2022-09-12T08:55:25;18.90;86.50
26541;DHT22;14206;50.202;10.948;2022-09-12T08:57:52;19.20;86.10
26541;DHT22;14206;50.202;10.948;2022-09-12T09:00:19;19.80;84.80
26541;DHT22;14206;50.202;10.948;2022-09-12T09:14:20;21.70;78.00
26541;DHT22;14206;50.202;10.948;2022-09-12T09:17:12;21.90;77.30
26541;DHT22;14206;50.202;10.948;2022-09-12T09:19:45;22.20;76.30
26541;DHT22;14206;50.202;10.948;2022-09-12T09:28:31;24.60;71.70
26541;DHT22;14206;50.202;10.948;2022-09-12T09:31:00;26.30;66.30
26541;DHT22;14206;50.202;10.948;2022-09-12T09:33:32;27.20;65.00
26541;DHT22;14206;50.202;10.948;2022-09-12T09:39:01;28.30;62.70
26541;DHT22;14206;50.202;10.948;2022-09-12T09:41:49;29.30;62.40
26541;DHT22;14206;50.202;10.948;2022-09-12T09:44:21;30.40;58.20
26541;DHT22;14206;50.202;10.948;2022-09-12T09:46:54;31.50;57.10
26541;DHT22;14206;50.202;10.948;2022-09-12T09:49:26;32.10;55.30
26541;DHT22;14206;50.202;10.948;2022-09-12T09:51:54;33.00;54.00
26541;DHT22;14206;50.202;10.948;2022-09-12T09:54:35;33.40;53.70
26541;DHT22;14206;50.202;10.948;2022-09-12T09:57:04;34.10;50.40
26541;DHT22;14206;50.202;10.948;2022-09-12T09:59:32;34.40;49.90
26541;DHT22;14206;50.202;10.948;2022-09-12T10:02:08;34.80;50.10
26541;DHT22;14206;50.202;10.948;2022-09-12T10:04:54;35.40;48.00
26541;DHT22;14206;50.202;10.948;2022-09-12T10:07:22;35.70;47.80
26541;DHT22;14206;50.202;10.948;2022-09-12T10:12:39;36.40;45.10
26541;DHT22;14206;50.202;10.948;2022-09-12T10:15:23;36.70;46.40
26541;DHT22;14206;50.202;10.948;2022-09-12T10:17:55;37.40;44.50
26541;DHT22;14206;50.202;10.948;2022-09-12T10:20:44;38.10;44.20
26541;DHT22;14206;50.202;10.948;2022-09-12T10:23:32;38.60;40.50
26541;DHT22;14206;50.202;10.948;2022-09-12T10:26:04;38.20;41.30
26541;DHT22;14206;50.202;10.948;2022-09-12T10:28:40;38.10;43.70
26541;DHT22;14206;50.202;10.948;2022-09-12T10:31:14;38.40;42.50
26541;DHT22;14206;50.202;10.948;2022-09-12T10:33:47;38.40;41.50
26541;DHT22;14206;50.202;10.948;2022-09-12T10:36:19;38.40;41.10
26541;DHT22;14206;50.202;10.948;2022-09-12T10:38:54;38.40;41.40
26541;DHT22;14206;50.202;10.948;2022-09-12T10:41:23;38.40;40.90
26541;DHT22;14206;50.202;10.948;2022-09-12T10:43:50;38.90;42.40
26541;DHT22;14206;50.202;10.948;2022-09-12T10:48:44;38.70;41.50
26541;DHT22;14206;50.202;10.948;2022-09-12T10:51:32;38.60;42.10
26541;DHT22;14206;50.202;10.948;2022-09-12T10:54:01;38.40;41.00
26541;DHT22;14206;50.202;10.948;2022-09-12T10:56:35;38.80;41.50
26541;DHT22;14206;50.202;10.948;2022-09-12T11:02:28;38.60;39.00
26541;DHT22;14206;50.202;10.948;2022-09-12T11:05:06;38.00;39.60
26541;DHT22;14206;50.202;10.948;2022-09-12T11:15:51;37.10;40.50
26541;DHT22;14206;50.202;10.948;2022-09-12T11:29:05;36.40;40.30
26541;DHT22;14206;50.202;10.948;2022-09-12T11:34:07;35.70;41.20
26541;DHT22;14206;50.202;10.948;2022-09-12T11:37:10;35.80;41.80
26541;DHT22;14206;50.202;10.948;2022-09-12T11:39:45;35.90;40.50
26541;DHT22;14206;50.202;10.948;2022-09-12T11:42:34;35.70;40.60
26541;DHT22;14206;50.202;10.948;2022-09-12T11:45:39;35.70;41.00
26541;DHT22;14206;50.202;10.948;2022-09-12T11:48:10;36.00;39.50
26541;DHT22;14206;50.202;10.948;2022-09-12T11:50:38;36.00;38.60
26541;DHT22;14206;50.202;10.948;2022-09-12T11:55:52;35.50;42.20
26541;DHT22;14206;50.202;10.948;2022-09-12T11:58:23;35.60;41.20
26541;DHT22;14206;50.202;10.948;2022-09-12T12:03:39;35.50;41.50
26541;DHT22;14206;50.202;10.948;2022-09-12T12:06:29;35.40;40.90
26541;DHT22;14206;50.202;10.948;2022-09-12T12:08:53;34.90;40.80
26541;DHT22;14206;50.202;10.948;2022-09-12T12:11:38;34.20;41.40
26541;DHT22;14206;50.202;10.948;2022-09-12T12:14:20;33.60;41.20
26541;DHT22;14206;50.202;10.948;2022-09-12T12:16:48;32.80;42.70
26541;DHT22;14206;50.202;10.948;2022-09-12T12:21:49;31.90;44.50
26541;DHT22;14206;50.202;10.948;2022-09-12T12:24:25;31.50;46.30
26541;DHT22;14206;50.202;10.948;2022-09-12T12:34:30;29.80;49.00
26541;DHT22;14206;50.202;10.948;2022-09-12T12:36:58;29.80;49.50
26541;DHT22;14206;50.202;10.948;2022-09-12T12:47:53;28.10;52.80
26541;DHT22;14206;50.202;10.948;2022-09-12T12:50:24;28.00;52.50
26541;DHT22;14206;50.202;10.948;2022-09-12T12:53:04;27.80;51.50
26541;DHT22;14206;50.202;10.948;2022-09-12T12:58:35;27.80;50.70
26541;DHT22;14206;50.202;10.948;2022-09-12T13:01:13;27.70;51.30
26541;DHT22;14206;50.202;10.948;2022-09-12T13:03:57;27.60;53.80
26541;DHT22;14206;50.202;10.948;2022-09-12T13:06:33;27.60;53.10
26541;DHT22;14206;50.202;10.948;2022-09-12T13:09:04;27.50;51.50
26541;DHT22;14206;50.202;10.948;2022-09-12T13:11:36;27.10;52.40
26541;DHT22;14206;50.202;10.948;2022-09-12T13:14:06;27.00;52.80
26541;DHT22;14206;50.202;10.948;2022-09-12T13:16:50;26.90;53.00
26541;DHT22;14206;50.202;10.948;2022-09-12T13:19:25;26.80;52.90
26541;DHT22;14206;50.202;10.948;2022-09-12T13:22:00;26.70;52.70
26541;DHT22;14206;50.202;10.948;2022-09-12T13:24:28;26.60;53.60
26541;DHT22;14206;50.202;10.948;2022-09-12T13:26:55;26.40;53.00
26541;DHT22;14206;50.202;10.948;2022-09-12T13:29:25;26.40;54.50
26541;DHT22;14206;50.202;10.948;2022-09-12T13:32:00;26.30;53.60
26541;DHT22;14206;50.202;10.948;2022-09-12T13:35:12;26.10;53.60
26541;DHT22;14206;50.202;10.948;2022-09-12T13:37:56;26.10;54.00
26541;DHT22;14206;50.202;10.948;2022-09-12T13:40:53;25.90;53.40
26541;DHT22;14206;50.202;10.948;2022-09-12T13:43:41;25.80;55.70
26541;DHT22;14206;50.202;10.948;2022-09-12T13:46:14;25.70;57.10
26541;DHT22;14206;50.202;10.948;2022-09-12T13:48:42;25.70;54.70
26541;DHT22;14206;50.202;10.948;2022-09-12T13:51:24;25.70;55.10
26541;DHT22;14206;50.202;10.948;2022-09-12T13:53:55;25.70;55.90
26541;DHT22;14206;50.202;10.948;2022-09-12T13:56:23;25.80;56.40
26541;DHT22;14206;50.202;10.948;2022-09-12T13:58:58;25.70;55.50
26541;DHT22;14206;50.202;10.948;2022-09-12T14:01:46;25.50;55.90
26541;DHT22;14206;50.202;10.948;2022-09-12T14:07:22;25.40;58.10
26541;DHT22;14206;50.202;10.948;2022-09-12T14:09:59;25.30;56.80
26541;DHT22;14206;50.202;10.948;2022-09-12T14:12:37;25.20;57.80
26541;DHT22;14206;50.202;10.948;2022-09-12T14:15:21;25.10;58.40
26541;DHT22;14206;50.202;10.948;2022-09-12T14:17:55;25.00;59.10
26541;DHT22;14206;50.202;10.948;2022-09-12T14:20:30;25.00;59.00
26541;DHT22;14206;50.202;10.948;2022-09-12T14:23:14;25.00;58.10
26541;DHT22;14206;50.202;10.948;2022-09-12T14:25:43;25.00;57.00
26541;DHT22;14206;50.202;10.948;2022-09-12T14:28:15;25.10;59.80
26541;DHT22;14206;50.202;10.948;2022-09-12T14:33:31;25.10;59.50
26541;DHT22;14206;50.202;10.948;2022-09-12T14:36:09;25.10;59.00
26541;DHT22;14206;50.202;10.948;2022-09-12T14:38:42;25.00;59.00
26541;DHT22;14206;50.202;10.948;2022-09-12T14:41:12;25.10;59.30
26541;DHT22;14206;50.202;10.948;2022-09-12T14:43:43;25.20;59.00
26541;DHT22;14206;50.202;10.948;2022-09-12T14:46:17;25.30;57.40
26541;DHT22;14206;50.202;10.948;2022-09-12T14:48:50;25.50;59.20
26541;DHT22;14206;50.202;10.948;2022-09-12T14:51:25;25.50;58.00
26541;DHT22;14206;50.202;10.948;2022-09-12T14:53:52;25.40;58.70
26541;DHT22;14206;50.202;10.948;2022-09-12T14:56:21;25.20;59.00
26541;DHT22;14206;50.202;10.948;2022-09-12T14:58:48;25.10;57.00
26541;DHT22;14206;50.202;10.948;2022-09-12T15:01:23;25.10;56.70
26541;DHT22;14206;50.202;10.948;2022-09-12T15:03:52;24.80;59.70
26541;DHT22;14206;50.202;10.948;2022-09-12T15:06:29;24.80;59.90
26541;DHT22;14206;50.202;10.948;2022-09-12T15:09:00;24.80;58.40
26541;DHT22;14206;50.202;10.948;2022-09-12T15:11:28;24.70;56.70
26541;DHT22;14206;50.202;10.948;2022-09-12T15:13:55;24.70;56.90
26541;DHT22;14206;50.202;10.948;2022-09-12T15:16:21;24.60;57.50
26541;DHT22;14206;50.202;10.948;2022-09-12T15:18:49;24.60;59.90
26541;DHT22;14206;50.202;10.948;2022-09-12T15:21:18;24.50;59.70
26541;DHT22;14206;50.202;10.948;2022-09-12T15:23:49;24.40;59.70
26541;DHT22;14206;50.202;10.948;2022-09-12T15:26:21;24.20;58.80
26541;DHT22;14206;50.202;10.948;2022-09-12T15:28:49;24.00;57.80
26541;DHT22;14206;50.202;10.948;2022-09-12T15:31:27;23.90;58.30
26541;DHT22;14206;50.202;10.948;2022-09-12T15:33:55;23.80;58.10
26541;DHT22;14206;50.202;10.948;2022-09-12T15:36:23;23.70;58.40
26541;DHT22;14206;50.202;10.948;2022-09-12T15:38:51;23.60;59.20
26541;DHT22;14206;50.202;10.948;2022-09-12T15:41:20;23.50;58.90
26541;DHT22;14206;50.202;10.948;2022-09-12T15:43:49;23.50;59.20
26541;DHT22;14206;50.202;10.948;2022-09-12T15:46:17;23.40;60.10
26541;DHT22;14206;50.202;10.948;2022-09-12T15:48:45;23.30;60.70
26541;DHT22;14206;50.202;10.948;2022-09-12T15:51:16;23.10;61.30
26541;DHT22;14206;50.202;10.948;2022-09-12T15:53:45;23.00;61.10
26541;DHT22;14206;50.202;10.948;2022-09-12T15:56:15;22.80;61.40
26541;DHT22;14206;50.202;10.948;2022-09-12T15:58:42;22.80;60.90
26541;DHT22;14206;50.202;10.948;2022-09-12T16:01:24;22.60;62.10
26541;DHT22;14206;50.202;10.948;2022-09-12T16:03:51;22.50;62.30
26541;DHT22;14206;50.202;10.948;2022-09-12T16:06:18;22.40;62.90
26541;DHT22;14206;50.202;10.948;2022-09-12T16:08:45;22.30;64.80
26541;DHT22;14206;50.202;10.948;2022-09-12T16:11:23;22.30;63.20
26541;DHT22;14206;50.202;10.948;2022-09-12T16:13:54;22.20;64.30
26541;DHT22;14206;50.202;10.948;2022-09-12T16:16:22;22.10;65.20
26541;DHT22;14206;50.202;10.948;2022-09-12T16:18:49;22.00;64.80
26541;DHT22;14206;50.202;10.948;2022-09-12T16:21:16;21.80;65.40
26541;DHT22;14206;50.202;10.948;2022-09-12T16:23:44;21.70;65.30
26541;DHT22;14206;50.202;10.948;2022-09-12T16:26:11;21.60;65.40
26541;DHT22;14206;50.202;10.948;2022-09-12T16:28:39;21.60;63.90
26541;DHT22;14206;50.202;10.948;2022-09-12T16:31:08;21.60;64.10
26541;DHT22;14206;50.202;10.948;2022-09-12T16:33:36;21.60;64.20
26541;DHT22;14206;50.202;10.948;2022-09-12T16:36:10;21.50;65.70
26541;DHT22;14206;50.202;10.948;2022-09-12T16:38:51;21.50;66.70
26541;DHT22;14206;50.202;10.948;2022-09-12T16:41:20;21.40;67.50
26541;DHT22;14206;50.202;10.948;2022-09-12T16:43:47;21.30;67.90
26541;DHT22;14206;50.202;10.948;2022-09-12T16:46:19;21.30;69.70
26541;DHT22;14206;50.202;10.948;2022-09-12T16:48:52;21.20;70.40
26541;DHT22;14206;50.202;10.948;2022-09-12T16:51:22;21.20;70.00
26541;DHT22;14206;50.202;10.948;2022-09-12T16:53:50;21.10;71.40
26541;DHT22;14206;50.202;10.948;2022-09-12T16:56:17;21.00;72.40
26541;DHT22;14206;50.202;10.948;2022-09-12T16:58:44;20.90;72.10
26541;DHT22;14206;50.202;10.948;2022-09-12T17:01:14;20.70;71.90
26541;DHT22;14206;50.202;10.948;2022-09-12T17:03:42;20.60;71.60
26541;DHT22;14206;50.202;10.948;2022-09-12T17:06:11;20.50;74.40
26541;DHT22;14206;50.202;10.948;2022-09-12T17:08:41;20.30;74.70
26541;DHT22;14206;50.202;10.948;2022-09-12T17:11:11;20.20;73.60
26541;DHT22;14206;50.202;10.948;2022-09-12T17:13:39;20.10;74.70
26541;DHT22;14206;50.202;10.948;2022-09-12T17:16:26;20.00;75.60
26541;DHT22;14206;50.202;10.948;2022-09-12T17:18:54;19.80;75.40
26541;DHT22;14206;50.202;10.948;2022-09-12T17:21:21;19.70;75.80
26541;DHT22;14206;50.202;10.948;2022-09-12T17:23:48;19.60;75.80
26541;DHT22;14206;50.202;10.948;2022-09-12T17:26:15;19.50;76.50
26541;DHT22;14206;50.202;10.948;2022-09-12T17:28:42;19.40;76.80
26541;DHT22;14206;50.202;10.948;2022-09-12T17:31:11;19.30;77.50
26541;DHT22;14206;50.202;10.948;2022-09-12T17:33:39;19.20;77.20
26541;DHT22;14206;50.202;10.948;2022-09-12T17:36:12;19.10;76.90
26541;DHT22;14206;50.202;10.948;2022-09-12T17:38:42;18.90;78.00
26541;DHT22;14206;50.202;10.948;2022-09-12T17:41:15;18.80;77.30
26541;DHT22;14206;50.202;10.948;2022-09-12T17:43:48;18.60;79.70
26541;DHT22;14206;50.202;10.948;2022-09-12T17:46:21;18.50;80.20
26541;DHT22;14206;50.202;10.948;2022-09-12T17:51:24;18.30;81.00
26541;DHT22;14206;50.202;10.948;2022-09-12T17:54:00;18.20;80.90
26541;DHT22;14206;50.202;10.948;2022-09-12T17:56:29;18.10;80.40
26541;DHT22;14206;50.202;10.948;2022-09-12T17:58:57;18.00;80.40
26541;DHT22;14206;50.202;10.948;2022-09-12T18:01:25;17.90;81.00
26541;DHT22;14206;50.202;10.948;2022-09-12T18:04:11;17.80;82.30
26541;DHT22;14206;50.202;10.948;2022-09-12T18:06:38;17.70;82.10
26541;DHT22;14206;50.202;10.948;2022-09-12T18:09:08;17.50;82.60
26541;DHT22;14206;50.202;10.948;2022-09-12T18:11:35;17.40;82.40